createdAt,value
2023-01-31T00:00:18.566Z,-3.53
2023-01-31T00:01:18.374Z,-3.52
2023-01-31T00:02:15.029Z,-3.54
2023-01-31T00:03:11.840Z,-3.60
2023-01-31T00:04:11.922Z,-3.62
2023-01-31T00:05:09.139Z,-3.80
2023-01-31T00:06:26.760Z,-3.63
2023-01-31T00:07:23.428Z,-3.59
2023-01-31T00:08:20.027Z,-3.43
2023-01-31T00:09:16.903Z,-3.62
2023-01-31T00:10:13.763Z,-3.37
2023-01-31T00:11:11.315Z,-3.38
2023-01-31T00:12:07.977Z,-3.52
2023-01-31T00:13:04.574Z,-3.55
2023-01-31T00:14:04.859Z,-3.60
2023-01-31T00:15:01.467Z,-3.68
2023-01-31T00:15:58.615Z,-3.61
2023-01-31T00:16:55.531Z,-3.60
2023-01-31T00:17:52.231Z,-3.30
2023-01-31T00:18:49.688Z,-3.06
2023-01-31T00:19:46.479Z,-3.11
2023-01-31T00:20:43.057Z,-3.24
2023-01-31T00:21:43.717Z,-3.33
2023-01-31T00:22:40.504Z,-3.15
2023-01-31T00:23:38.425Z,-3.11
2023-01-31T00:24:36.035Z,-3.27
2023-01-31T00:25:32.630Z,-2.99
2023-01-31T00:26:31.938Z,-2.86
2023-01-31T00:27:28.587Z,-2.74
2023-01-31T00:28:25.232Z,-2.46
2023-01-31T00:29:21.926Z,-2.63
2023-01-31T00:30:18.495Z,-2.69
2023-01-31T00:31:17.045Z,-2.79
2023-01-31T00:32:13.789Z,-2.62
2023-01-31T00:33:10.387Z,-2.48
2023-01-31T00:34:07.575Z,-2.71
2023-01-31T00:35:04.463Z,-2.69
2023-01-31T00:36:10.143Z,-2.62
2023-01-31T00:37:06.781Z,-2.79
2023-01-31T00:38:03.454Z,-3.53
2023-01-31T00:39:02.493Z,-2.92
2023-01-31T00:39:59.060Z,-2.63
2023-01-31T00:40:55.744Z,-2.80
2023-01-31T00:41:52.346Z,-2.84
2023-01-31T00:42:48.929Z,-3.02
2023-01-31T00:43:45.619Z,-3.05
2023-01-31T00:44:42.193Z,-3.07
2023-01-31T00:45:38.699Z,-3.07
2023-01-31T00:46:36.467Z,-3.16
2023-01-31T00:47:33.251Z,-3.49
2023-01-31T00:48:30.746Z,-3.39
2023-01-31T00:49:27.567Z,-3.32
2023-01-31T00:50:24.211Z,-3.06
2023-01-31T00:51:21.498Z,-3.12
2023-01-31T00:52:18.127Z,-3.18
2023-01-31T00:53:14.785Z,-3.10
2023-01-31T00:54:11.426Z,-3.37
2023-01-31T00:55:08.433Z,-2.93
2023-01-31T00:56:08.488Z,-3.08
2023-01-31T00:57:05.109Z,-3.10
2023-01-31T00:58:01.762Z,-3.26
2023-01-31T00:58:58.488Z,-2.94
2023-01-31T00:59:55.080Z,-3.13
2023-01-31T01:00:51.794Z,-2.43
2023-01-31T01:01:48.486Z,-2.15
2023-01-31T01:02:45.094Z,-2.06
2023-01-31T01:03:43.435Z,-2.27
2023-01-31T01:04:40.152Z,-2.62
2023-01-31T01:05:37.309Z,-2.37
2023-01-31T01:06:34.626Z,-2.47
2023-01-31T01:07:31.867Z,-2.63
2023-01-31T01:08:29.231Z,-2.64
2023-01-31T01:09:25.838Z,-2.71
2023-01-31T01:10:22.546Z,-2.59
2023-01-31T01:11:30.044Z,-2.68
2023-01-31T01:12:26.804Z,-2.69
2023-01-31T01:13:23.463Z,-2.57
2023-01-31T01:14:20.287Z,-2.49
2023-01-31T01:15:17.794Z,-2.13
2023-01-31T01:16:23.826Z,-2.47
2023-01-31T01:17:20.459Z,-2.36
2023-01-31T01:18:17.103Z,-2.13
2023-01-31T01:19:17.856Z,-2.12
2023-01-31T01:20:14.507Z,-2.42
2023-01-31T01:21:14.605Z,-2.39
2023-01-31T01:22:16.080Z,-2.71
2023-01-31T01:23:12.685Z,-3.10
2023-01-31T01:24:13.767Z,-2.43
2023-01-31T01:25:10.968Z,-2.30
2023-01-31T01:26:14.917Z,-2.35
2023-01-31T01:27:12.611Z,-2.54
2023-01-31T01:28:09.167Z,-3.20
2023-01-31T01:29:05.877Z,-2.41
2023-01-31T01:30:03.211Z,-2.48
2023-01-31T01:30:59.824Z,-2.74
2023-01-31T01:31:56.462Z,-2.82
2023-01-31T01:32:56.371Z,-2.97
2023-01-31T01:33:52.948Z,-3.05
2023-01-31T01:34:49.837Z,-3.07
2023-01-31T01:35:46.588Z,-2.93
2023-01-31T01:36:44.231Z,-3.10
2023-01-31T01:37:42.200Z,-2.98
2023-01-31T01:38:42.695Z,-3.43
2023-01-31T01:39:39.448Z,-3.11
2023-01-31T01:40:37.847Z,-3.08
2023-01-31T01:41:35.135Z,-3.04
2023-01-31T01:42:35.495Z,-3.23
2023-01-31T01:43:54.769Z,-3.06
2023-01-31T01:44:59.264Z,-3.01
2023-01-31T01:45:56.088Z,-2.87
2023-01-31T01:46:52.853Z,-2.82
2023-01-31T01:48:01.049Z,-2.67
2023-01-31T01:49:05.747Z,-2.59
2023-01-31T01:50:30.341Z,-2.84
2023-01-31T01:51:29.964Z,-2.51
2023-01-31T01:52:29.748Z,-2.87
2023-01-31T01:53:28.833Z,-2.82
2023-01-31T01:54:31.593Z,-2.84
2023-01-31T01:55:34.696Z,-2.76
2023-01-31T01:56:37.683Z,-3.00
2023-01-31T01:57:39.575Z,-2.88
2023-01-31T01:58:51.510Z,-2.97
2023-01-31T01:59:55.907Z,-3.18
2023-01-31T02:00:53.787Z,-3.08
2023-01-31T02:01:51.081Z,-3.22
2023-01-31T02:02:50.793Z,-3.32
2023-01-31T02:03:49.346Z,-3.37
2023-01-31T02:04:49.872Z,-3.25
2023-01-31T02:05:50.000Z,-3.44
2023-01-31T02:06:47.415Z,-3.58
2023-01-31T02:07:44.208Z,-3.63
2023-01-31T02:08:42.643Z,-3.60
2023-01-31T02:10:05.010Z,-3.58
2023-01-31T02:11:08.298Z,-3.57
2023-01-31T02:12:05.237Z,-3.50
2023-01-31T02:13:02.780Z,-3.82
2023-01-31T02:14:03.521Z,-3.56
2023-01-31T02:15:00.891Z,-3.35
2023-01-31T02:15:58.509Z,-3.30
2023-01-31T02:16:55.138Z,-3.31
2023-01-31T02:17:53.755Z,-3.48
2023-01-31T02:18:51.435Z,-3.38
2023-01-31T02:19:54.026Z,-3.15
2023-01-31T02:21:09.577Z,-3.29
2023-01-31T02:22:27.653Z,-3.44
2023-01-31T02:23:45.721Z,-3.48
2023-01-31T02:25:16.490Z,-3.46
2023-01-31T02:26:46.709Z,-3.56
2023-01-31T02:27:52.342Z,-3.50
2023-01-31T02:28:51.680Z,-3.54
2023-01-31T02:29:48.271Z,-3.53
2023-01-31T02:31:13.297Z,-3.68
2023-01-31T02:32:52.450Z,-3.15
2023-01-31T02:33:55.502Z,-3.48
2023-01-31T02:35:02.340Z,-3.74
2023-01-31T02:36:25.598Z,-3.64
2023-01-31T02:37:40.378Z,-3.66
2023-01-31T02:38:42.986Z,-3.56
2023-01-31T02:39:53.027Z,-3.51
2023-01-31T02:40:55.900Z,-3.66
2023-01-31T02:42:00.881Z,-3.62
2023-01-31T02:43:03.008Z,-3.54
2023-01-31T02:44:24.836Z,-3.57
2023-01-31T02:45:48.411Z,-3.54
2023-01-31T02:46:47.600Z,-3.45
2023-01-31T02:48:19.996Z,-3.22
2023-01-31T02:49:37.199Z,-3.26
2023-01-31T02:50:44.272Z,-3.64
2023-01-31T02:52:06.280Z,-3.63
2023-01-31T02:53:12.232Z,-3.53
2023-01-31T02:54:12.589Z,-3.38
2023-01-31T02:55:36.749Z,-3.31
2023-01-31T02:56:36.976Z,-3.21
2023-01-31T02:57:36.691Z,-3.17
2023-01-31T02:58:37.827Z,-3.00
2023-01-31T02:59:36.705Z,-2.99
2023-01-31T03:00:36.579Z,-3.00
2023-01-31T03:01:36.792Z,-2.92
2023-01-31T03:02:33.532Z,-2.95
2023-01-31T03:03:34.525Z,-3.27
2023-01-31T03:04:32.978Z,-3.33
2023-01-31T03:05:29.838Z,-3.18
2023-01-31T03:06:27.213Z,-2.96
2023-01-31T03:07:29.555Z,-3.06
2023-01-31T03:08:26.176Z,-3.18
2023-01-31T03:09:50.026Z,-3.25
2023-01-31T03:10:49.378Z,-3.33
2023-01-31T03:11:58.227Z,-3.57
2023-01-31T03:13:02.432Z,-3.76
2023-01-31T03:14:31.106Z,-3.78
2023-01-31T03:16:08.246Z,-3.82
2023-01-31T03:17:27.610Z,-4.04
2023-01-31T03:18:32.013Z,-3.85
2023-01-31T03:19:53.505Z,-3.99
2023-01-31T03:21:05.742Z,-3.67
2023-01-31T03:22:10.849Z,-3.33
2023-01-31T03:23:12.624Z,-3.53
2023-01-31T03:24:09.707Z,-3.51
2023-01-31T03:25:10.041Z,-3.79
2023-01-31T03:26:08.059Z,-3.55
2023-01-31T03:27:05.299Z,-3.41
2023-01-31T03:28:06.480Z,-3.60
2023-01-31T03:29:06.728Z,-3.85
2023-01-31T03:30:13.745Z,-3.66
2023-01-31T03:31:19.972Z,-3.72
2023-01-31T03:32:17.159Z,-3.81
2023-01-31T03:33:25.668Z,-4.33
2023-01-31T03:34:22.737Z,-4.01
2023-01-31T03:35:24.136Z,-4.32
2023-01-31T03:36:26.942Z,-4.04
2023-01-31T03:37:47.325Z,-4.03
2023-01-31T03:39:10.760Z,-4.12
2023-01-31T03:40:30.600Z,-4.26
2023-01-31T03:41:50.212Z,-4.22
2023-01-31T03:43:15.158Z,-3.81
2023-01-31T03:44:37.669Z,-4.11
2023-01-31T03:45:50.747Z,-3.96
2023-01-31T03:46:53.693Z,-4.06
2023-01-31T03:47:51.933Z,-4.00
2023-01-31T03:48:52.169Z,-4.12
2023-01-31T03:49:51.764Z,-4.10
2023-01-31T03:50:55.232Z,-4.02
2023-01-31T03:51:56.464Z,-4.03
2023-01-31T03:53:00.407Z,-4.10
2023-01-31T03:54:03.893Z,-3.93
2023-01-31T03:55:07.926Z,-4.00
2023-01-31T03:56:16.857Z,-4.07
2023-01-31T03:57:36.034Z,-3.92
2023-01-31T03:58:38.494Z,-3.80
2023-01-31T03:59:37.272Z,-3.74
2023-01-31T04:00:38.695Z,-3.80
2023-01-31T04:01:40.491Z,-4.01
2023-01-31T04:02:37.907Z,-3.58
2023-01-31T04:04:07.884Z,-3.66
2023-01-31T04:05:16.925Z,-3.84
2023-01-31T04:06:14.526Z,-3.89
2023-01-31T04:07:12.490Z,-3.73
2023-01-31T04:08:09.338Z,-4.43
2023-01-31T04:09:06.397Z,-4.13
2023-01-31T04:10:08.155Z,-3.73
2023-01-31T04:11:06.499Z,-3.76
2023-01-31T04:12:03.430Z,-3.56
2023-01-31T04:13:01.567Z,-3.42
2023-01-31T04:13:58.164Z,-3.35
2023-01-31T04:14:54.799Z,-3.55
2023-01-31T04:15:51.418Z,-3.72
2023-01-31T04:16:48.068Z,-3.55
2023-01-31T04:17:45.052Z,-3.53
2023-01-31T04:18:41.643Z,-3.44
2023-01-31T04:19:38.299Z,-3.40
2023-01-31T04:20:35.029Z,-3.55
2023-01-31T04:21:32.172Z,-3.39
2023-01-31T04:22:28.883Z,-3.26
2023-01-31T04:23:26.657Z,-3.25
2023-01-31T04:24:23.323Z,-3.21
2023-01-31T04:25:20.131Z,-3.36
2023-01-31T04:26:17.032Z,-3.15
2023-01-31T04:27:13.636Z,-3.20
2023-01-31T04:28:11.170Z,-2.94
2023-01-31T04:29:07.804Z,-3.12
2023-01-31T04:30:05.308Z,-3.12
2023-01-31T04:31:02.028Z,-3.16
2023-01-31T04:31:58.826Z,-3.10
2023-01-31T04:32:55.551Z,-3.04
2023-01-31T04:33:52.145Z,-3.12
2023-01-31T04:34:48.768Z,-3.13
2023-01-31T04:35:46.537Z,-3.14
2023-01-31T04:36:43.107Z,-3.18
2023-01-31T04:37:39.674Z,-3.24
2023-01-31T04:38:36.587Z,-3.32
2023-01-31T04:39:33.347Z,-3.36
2023-01-31T04:40:29.988Z,-3.22
2023-01-31T04:41:27.073Z,-3.24
2023-01-31T04:42:23.725Z,-3.19
2023-01-31T04:43:20.354Z,-3.05
2023-01-31T04:44:17.065Z,-3.03
2023-01-31T04:45:13.754Z,-3.08
2023-01-31T04:46:10.351Z,-3.10
2023-01-31T04:47:06.997Z,-3.19
2023-01-31T04:48:04.162Z,-3.36
2023-01-31T04:49:00.839Z,-3.57
2023-01-31T04:49:57.533Z,-2.89
2023-01-31T04:50:54.173Z,-3.07
2023-01-31T04:51:50.737Z,-2.64
2023-01-31T04:52:51.573Z,-3.10
2023-01-31T04:53:48.276Z,-2.64
2023-01-31T04:54:44.898Z,-2.58
2023-01-31T04:55:41.482Z,-2.83
2023-01-31T04:56:38.081Z,-3.09
2023-01-31T04:57:34.723Z,-2.97
2023-01-31T04:58:31.716Z,-2.86
2023-01-31T04:59:28.559Z,-2.86
2023-01-31T05:00:25.299Z,-2.56
2023-01-31T05:01:22.085Z,-3.16
2023-01-31T05:02:18.937Z,-2.94
2023-01-31T05:03:15.910Z,-2.85
2023-01-31T05:04:12.777Z,-2.74
2023-01-31T05:05:09.724Z,-2.82
2023-01-31T05:06:07.039Z,-3.12
2023-01-31T05:07:03.701Z,-3.11
2023-01-31T05:08:00.287Z,-3.07
2023-01-31T05:09:01.596Z,-3.39
2023-01-31T05:09:58.256Z,-3.77
2023-01-31T05:11:08.787Z,-3.30
2023-01-31T05:12:07.354Z,-2.96
2023-01-31T05:13:04.104Z,-3.04
2023-01-31T05:14:00.752Z,-3.33
2023-01-31T05:14:57.971Z,-3.16
2023-01-31T05:15:54.653Z,-3.32
2023-01-31T05:16:51.351Z,-3.49
2023-01-31T05:18:03.010Z,-3.30
2023-01-31T05:18:59.657Z,-3.29
2023-01-31T05:19:57.185Z,-3.27
2023-01-31T05:20:53.871Z,-3.04
2023-01-31T05:21:59.012Z,-3.21
2023-01-31T05:22:55.651Z,-3.36
2023-01-31T05:23:52.203Z,-2.69
2023-01-31T05:24:50.286Z,-2.70
2023-01-31T05:25:49.821Z,-3.01
2023-01-31T05:26:47.763Z,-2.67
2023-01-31T05:27:44.984Z,-2.81
2023-01-31T05:28:42.849Z,-2.56
2023-01-31T05:29:39.597Z,-2.56
2023-01-31T05:30:36.430Z,-2.61
2023-01-31T05:31:33.311Z,-2.89
2023-01-31T05:32:29.993Z,-2.53
2023-01-31T05:33:29.286Z,-2.63
2023-01-31T05:34:28.731Z,-2.64
2023-01-31T05:35:25.466Z,-2.49
2023-01-31T05:36:22.044Z,-2.44
2023-01-31T05:37:19.406Z,-2.40
2023-01-31T05:38:16.122Z,-2.57
2023-01-31T05:39:12.759Z,-2.56
2023-01-31T05:40:11.405Z,-2.54
2023-01-31T05:41:08.053Z,-2.35
2023-01-31T05:42:04.739Z,-2.63
2023-01-31T05:43:02.008Z,-2.78
2023-01-31T05:43:58.819Z,-2.42
2023-01-31T05:44:55.495Z,-2.56
2023-01-31T05:45:52.251Z,-2.55
2023-01-31T05:46:48.996Z,-2.55
2023-01-31T05:47:47.795Z,-2.72
2023-01-31T05:48:46.702Z,-2.53
2023-01-31T05:49:43.378Z,-2.68
2023-01-31T05:50:39.986Z,-2.72
2023-01-31T05:51:36.712Z,-3.42
2023-01-31T05:52:33.430Z,-2.38
2023-01-31T05:53:30.133Z,-2.66
2023-01-31T05:54:26.747Z,-2.49
2023-01-31T05:55:23.448Z,-2.16
2023-01-31T05:56:20.041Z,-2.32
2023-01-31T05:57:16.670Z,-1.97
2023-01-31T05:58:13.313Z,-2.10
2023-01-31T05:59:10.099Z,-2.26
2023-01-31T06:00:08.662Z,-2.70
2023-01-31T06:01:05.391Z,-2.51
2023-01-31T06:02:02.413Z,-2.49
2023-01-31T06:03:00.180Z,-2.40
2023-01-31T06:03:56.831Z,-2.55
2023-01-31T06:04:53.397Z,-2.32
2023-01-31T06:05:50.195Z,-2.42
2023-01-31T06:06:46.804Z,-2.56
2023-01-31T06:07:43.467Z,-2.47
2023-01-31T06:08:41.977Z,-2.61
2023-01-31T06:09:40.558Z,-2.40
2023-01-31T06:10:37.128Z,-2.68
2023-01-31T06:11:33.795Z,-2.20
2023-01-31T06:12:31.915Z,-2.29
2023-01-31T06:13:28.651Z,-2.54
2023-01-31T06:14:25.413Z,-2.23
2023-01-31T06:15:22.390Z,-2.31
2023-01-31T06:16:19.277Z,-2.30
2023-01-31T06:17:16.058Z,-2.18
2023-01-31T06:18:13.324Z,-2.33
2023-01-31T06:19:09.920Z,-2.35
2023-01-31T06:20:06.895Z,-2.38
2023-01-31T06:21:03.856Z,-2.25
2023-01-31T06:22:00.471Z,-2.31
2023-01-31T06:22:57.371Z,-2.44
2023-01-31T06:23:53.945Z,-2.32
2023-01-31T06:24:50.791Z,-2.23
2023-01-31T06:25:51.573Z,-2.06
2023-01-31T06:26:48.171Z,-2.16
2023-01-31T06:27:45.196Z,-2.19
2023-01-31T06:28:41.875Z,-2.30
2023-01-31T06:29:38.496Z,-2.22
2023-01-31T06:30:36.884Z,-2.08
2023-01-31T06:31:33.585Z,-1.93
2023-01-31T06:32:30.592Z,-1.68
2023-01-31T06:33:42.354Z,-2.04
2023-01-31T06:34:42.287Z,-1.95
2023-01-31T06:35:39.550Z,-1.94
2023-01-31T06:36:36.153Z,-2.19
2023-01-31T06:37:32.959Z,-2.21
2023-01-31T06:38:30.130Z,-2.02
2023-01-31T06:39:27.126Z,-1.90
2023-01-31T06:40:23.835Z,-2.09
2023-01-31T06:41:20.886Z,-1.95
2023-01-31T06:42:17.572Z,-2.00
2023-01-31T06:43:14.196Z,-2.46
2023-01-31T06:44:10.821Z,-2.06
2023-01-31T06:45:08.121Z,-1.98
2023-01-31T06:46:05.002Z,-2.00
2023-01-31T06:47:01.890Z,-2.16
2023-01-31T06:47:58.497Z,-1.80
2023-01-31T06:48:55.082Z,-1.72
2023-01-31T06:49:51.714Z,-1.81
2023-01-31T06:50:48.394Z,-1.76
2023-01-31T06:51:45.330Z,-1.68
2023-01-31T06:52:42.406Z,-1.75
2023-01-31T06:53:38.979Z,-1.80
2023-01-31T06:54:35.605Z,-2.01
2023-01-31T06:55:32.640Z,-1.86
2023-01-31T06:56:29.312Z,-1.98
2023-01-31T06:57:26.016Z,-2.09
2023-01-31T06:58:22.642Z,-2.10
2023-01-31T06:59:19.243Z,-1.77
2023-01-31T07:00:18.649Z,-2.31
2023-01-31T07:01:15.971Z,-2.23
2023-01-31T07:02:12.724Z,-1.85
2023-01-31T07:03:09.333Z,-1.62
2023-01-31T07:04:05.930Z,-1.33
2023-01-31T07:05:02.752Z,-1.64
2023-01-31T07:05:59.568Z,-1.78
2023-01-31T07:06:57.511Z,-1.47
2023-01-31T07:07:54.111Z,-1.32
2023-01-31T07:08:51.010Z,-1.54
2023-01-31T07:09:47.577Z,-1.82
2023-01-31T07:10:44.156Z,-1.83
2023-01-31T07:11:40.799Z,-1.78
2023-01-31T07:12:37.694Z,-1.87
2023-01-31T07:13:34.404Z,-1.82
2023-01-31T07:14:31.457Z,-1.37
2023-01-31T07:15:28.154Z,-1.52
2023-01-31T07:16:25.650Z,-1.48
2023-01-31T07:17:22.508Z,-1.53
2023-01-31T07:18:19.156Z,-1.49
2023-01-31T07:19:15.834Z,-1.45
2023-01-31T07:20:12.959Z,-1.60
2023-01-31T07:21:10.853Z,-1.75
2023-01-31T07:22:07.410Z,-1.36
2023-01-31T07:23:03.965Z,-1.50
2023-01-31T07:24:00.619Z,-1.71
2023-01-31T07:24:57.267Z,-1.62
2023-01-31T07:25:53.824Z,-1.47
2023-01-31T07:26:53.119Z,-1.24
2023-01-31T07:27:49.809Z,-1.47
2023-01-31T07:28:46.373Z,-1.17
2023-01-31T07:29:46.247Z,-1.16
2023-01-31T07:30:43.988Z,-1.02
2023-01-31T07:31:40.743Z,-1.10
2023-01-31T07:32:37.484Z,-0.99
2023-01-31T07:33:34.513Z,-0.87
2023-01-31T07:34:31.284Z,-0.95
2023-01-31T07:35:28.718Z,-1.00
2023-01-31T07:36:26.756Z,-0.95
2023-01-31T07:37:23.363Z,-0.87
2023-01-31T07:38:19.927Z,-0.82
2023-01-31T07:39:16.589Z,-0.60
2023-01-31T07:40:15.260Z,-0.89
2023-01-31T07:41:11.935Z,-0.77
2023-01-31T07:42:08.495Z,-0.57
2023-01-31T07:43:05.139Z,-0.49
2023-01-31T07:44:01.821Z,-0.55
2023-01-31T07:44:59.827Z,-0.54
2023-01-31T07:45:59.429Z,-0.52
2023-01-31T07:46:56.562Z,-0.82
2023-01-31T07:47:53.391Z,-0.44
2023-01-31T07:48:49.954Z,-0.05
2023-01-31T07:49:46.571Z,-0.26
2023-01-31T07:50:43.209Z,-0.49
2023-01-31T07:51:40.035Z,-0.33
2023-01-31T07:52:36.724Z,-0.28
2023-01-31T07:53:36.652Z,-0.55
2023-01-31T07:54:33.420Z,-0.85
2023-01-31T07:55:30.159Z,-0.05
2023-01-31T07:56:27.466Z,0.10
2023-01-31T07:57:24.462Z,0.21
2023-01-31T07:58:21.079Z,0.25
2023-01-31T07:59:17.791Z,0.10
2023-01-31T08:00:33.404Z,0.08
2023-01-31T08:01:50.739Z,0.05
2023-01-31T08:03:06.135Z,0.51
2023-01-31T08:04:19.524Z,0.58
2023-01-31T08:05:17.602Z,0.40
2023-01-31T08:06:15.142Z,0.81
2023-01-31T08:07:12.864Z,1.12
2023-01-31T08:08:12.395Z,0.75
2023-01-31T08:09:09.404Z,0.88
2023-01-31T08:10:06.418Z,1.28
2023-01-31T08:11:05.161Z,0.66
2023-01-31T08:12:01.928Z,0.40
2023-01-31T08:12:58.495Z,0.87
2023-01-31T08:13:55.243Z,1.06
2023-01-31T08:14:51.806Z,1.19
2023-01-31T08:15:48.488Z,0.38
2023-01-31T08:16:45.428Z,0.35
2023-01-31T08:17:42.066Z,0.66
2023-01-31T08:18:39.312Z,0.61
2023-01-31T08:19:36.346Z,0.55
2023-01-31T08:20:33.309Z,0.46
2023-01-31T08:21:30.401Z,0.56
2023-01-31T08:22:27.091Z,0.59
2023-01-31T08:23:24.399Z,0.70
2023-01-31T08:24:21.031Z,0.59
2023-01-31T08:25:19.623Z,0.44
2023-01-31T08:26:20.231Z,0.91
2023-01-31T08:27:16.851Z,0.40
2023-01-31T08:28:13.540Z,0.95
2023-01-31T08:29:10.123Z,0.72
2023-01-31T08:30:07.600Z,0.32
2023-01-31T08:31:09.529Z,0.17
2023-01-31T08:32:06.527Z,0.58
2023-01-31T08:33:03.535Z,0.75
2023-01-31T08:34:00.252Z,0.75
2023-01-31T08:34:57.203Z,0.78
2023-01-31T08:35:53.801Z,0.75
2023-01-31T08:36:50.424Z,1.01
2023-01-31T08:37:47.103Z,0.83
2023-01-31T08:38:47.135Z,0.65
2023-01-31T08:39:44.657Z,0.90
2023-01-31T08:40:41.287Z,0.71
2023-01-31T08:41:38.985Z,0.46
2023-01-31T08:42:35.555Z,0.63
2023-01-31T08:43:39.337Z,0.86
2023-01-31T08:44:43.842Z,1.14
2023-01-31T08:45:40.529Z,1.22
2023-01-31T08:46:37.851Z,0.80
2023-01-31T08:47:34.559Z,0.44
2023-01-31T08:48:35.304Z,0.37
2023-01-31T08:49:33.778Z,0.87
2023-01-31T08:50:32.760Z,0.36
2023-01-31T08:51:30.342Z,0.95
2023-01-31T08:52:27.007Z,1.25
2023-01-31T08:53:23.635Z,1.47
2023-01-31T08:54:20.318Z,1.39
2023-01-31T08:55:16.959Z,1.62
2023-01-31T08:56:14.597Z,1.36
2023-01-31T08:57:11.393Z,1.27
2023-01-31T08:58:08.213Z,1.16
2023-01-31T08:59:04.884Z,1.24
2023-01-31T09:00:01.492Z,1.68
2023-01-31T09:01:02.863Z,2.07
2023-01-31T09:01:59.526Z,1.80
2023-01-31T09:02:58.918Z,1.33
2023-01-31T09:03:57.396Z,1.39
2023-01-31T09:04:54.065Z,1.49
2023-01-31T09:05:50.677Z,1.30
2023-01-31T09:06:47.353Z,1.44
2023-01-31T09:07:43.939Z,1.23
2023-01-31T09:08:40.594Z,1.66
2023-01-31T09:09:37.195Z,1.76
2023-01-31T09:10:33.821Z,1.27
2023-01-31T09:11:30.856Z,1.71
2023-01-31T09:12:27.681Z,1.50
2023-01-31T09:13:24.596Z,1.81
2023-01-31T09:14:21.264Z,1.53
2023-01-31T09:15:17.867Z,1.74
2023-01-31T09:16:15.331Z,1.19
2023-01-31T09:17:11.964Z,1.92
2023-01-31T09:18:08.635Z,1.70
2023-01-31T09:19:05.235Z,1.62
2023-01-31T09:20:06.662Z,1.80
2023-01-31T09:21:13.206Z,1.62
2023-01-31T09:22:09.760Z,1.33
2023-01-31T09:23:06.351Z,1.23
2023-01-31T09:24:03.849Z,1.39
2023-01-31T09:25:01.632Z,1.46
2023-01-31T09:25:58.416Z,1.64
2023-01-31T09:26:56.462Z,1.55
2023-01-31T09:27:53.885Z,1.52
2023-01-31T09:28:51.156Z,1.47
2023-01-31T09:29:47.872Z,1.49
2023-01-31T09:30:44.477Z,1.41
2023-01-31T09:31:41.204Z,1.42
2023-01-31T09:32:38.783Z,1.11
2023-01-31T09:33:36.070Z,0.84
2023-01-31T09:34:33.350Z,1.35
2023-01-31T09:35:32.062Z,1.67
2023-01-31T09:36:29.027Z,1.58
2023-01-31T09:37:25.762Z,1.12
2023-01-31T09:38:23.415Z,0.93
2023-01-31T09:39:20.006Z,0.87
2023-01-31T09:40:26.532Z,1.11
2023-01-31T09:41:41.944Z,1.30
2023-01-31T09:42:44.238Z,1.28
2023-01-31T09:43:46.020Z,1.59
2023-01-31T09:44:46.167Z,1.41
2023-01-31T09:45:46.136Z,1.87
2023-01-31T09:46:54.641Z,2.00
2023-01-31T09:47:54.328Z,2.20
2023-01-31T09:48:54.622Z,2.61
2023-01-31T09:49:55.078Z,2.75
2023-01-31T09:50:56.956Z,2.65
2023-01-31T09:51:58.571Z,2.86
2023-01-31T09:52:55.336Z,2.82
2023-01-31T09:53:53.495Z,2.86
2023-01-31T09:54:50.196Z,3.03
2023-01-31T09:56:09.889Z,3.28
2023-01-31T09:57:12.463Z,3.21
2023-01-31T09:58:34.283Z,2.89
2023-01-31T09:59:55.808Z,3.07
2023-01-31T10:01:02.572Z,3.14
2023-01-31T10:02:04.281Z,3.28
2023-01-31T10:03:39.116Z,3.42
2023-01-31T10:05:03.852Z,3.56
2023-01-31T10:06:03.323Z,3.56
2023-01-31T10:07:00.151Z,3.00
2023-01-31T10:08:08.724Z,2.98
2023-01-31T10:09:14.703Z,3.55
2023-01-31T10:10:34.112Z,3.78
2023-01-31T10:11:55.117Z,3.21
2023-01-31T10:12:57.994Z,3.70
2023-01-31T10:14:01.436Z,3.59
2023-01-31T10:15:13.560Z,3.74
2023-01-31T10:16:52.049Z,2.66
2023-01-31T10:18:16.199Z,2.87
2023-01-31T10:19:19.864Z,3.39
2023-01-31T10:20:32.792Z,3.28
2023-01-31T10:21:38.614Z,3.36
2023-01-31T10:22:47.082Z,2.77
2023-01-31T10:24:24.047Z,3.48
2023-01-31T10:25:28.123Z,3.15
2023-01-31T10:26:30.650Z,3.79
2023-01-31T10:27:48.885Z,4.11
2023-01-31T10:28:55.192Z,3.74
2023-01-31T10:29:55.429Z,3.51
2023-01-31T10:30:59.805Z,3.54
2023-01-31T10:32:00.735Z,3.00
2023-01-31T10:33:03.848Z,3.19
2023-01-31T10:34:17.156Z,3.17
2023-01-31T10:35:21.572Z,2.66
2023-01-31T10:36:36.739Z,2.96
2023-01-31T10:37:44.433Z,2.89
2023-01-31T10:38:56.987Z,2.53
2023-01-31T10:39:59.046Z,2.30
2023-01-31T10:41:30.099Z,2.28
2023-01-31T10:42:36.347Z,2.11
2023-01-31T10:43:47.356Z,2.49
2023-01-31T10:44:53.186Z,2.76
2023-01-31T10:45:49.824Z,2.50
2023-01-31T10:46:47.925Z,1.99
2023-01-31T10:48:01.134Z,1.93
2023-01-31T10:48:58.085Z,2.14
2023-01-31T10:49:54.793Z,2.13
2023-01-31T10:51:24.426Z,2.52
2023-01-31T10:52:32.983Z,2.43
2023-01-31T10:54:06.133Z,2.31
2023-01-31T10:55:47.321Z,2.31
2023-01-31T10:56:47.751Z,2.70
2023-01-31T10:57:44.767Z,2.47
2023-01-31T10:58:41.649Z,2.07
2023-01-31T10:59:42.975Z,1.88
2023-01-31T11:00:39.648Z,1.59
2023-01-31T11:01:36.519Z,1.55
2023-01-31T11:02:33.372Z,1.64
2023-01-31T11:03:30.142Z,1.60
2023-01-31T11:04:37.412Z,1.62
2023-01-31T11:05:42.490Z,1.64
2023-01-31T11:06:39.146Z,1.47
2023-01-31T11:07:35.953Z,1.35
2023-01-31T11:09:11.945Z,1.10
2023-01-31T11:10:27.554Z,1.20
2023-01-31T11:11:26.167Z,1.27
2023-01-31T11:12:41.030Z,1.16
2023-01-31T11:13:38.365Z,1.41
2023-01-31T11:14:36.749Z,1.29
2023-01-31T11:15:39.521Z,1.58
2023-01-31T11:16:40.764Z,1.61
2023-01-31T11:17:39.351Z,1.47
2023-01-31T11:18:46.444Z,1.46
2023-01-31T11:19:46.100Z,1.20
2023-01-31T11:20:47.656Z,1.19
2023-01-31T11:21:50.572Z,1.05
2023-01-31T11:22:47.211Z,1.48
2023-01-31T11:24:05.351Z,1.15
2023-01-31T11:25:06.986Z,1.29
2023-01-31T11:26:04.525Z,0.91
2023-01-31T11:27:07.466Z,1.06
2023-01-31T11:28:17.245Z,0.71
2023-01-31T11:29:25.734Z,1.11
2023-01-31T11:30:31.769Z,1.02
2023-01-31T11:31:34.880Z,1.20
2023-01-31T11:32:35.643Z,0.97
2023-01-31T11:33:44.251Z,0.95
2023-01-31T11:34:55.909Z,0.79
2023-01-31T11:35:52.832Z,0.69
2023-01-31T11:36:49.682Z,0.70
2023-01-31T11:37:54.135Z,0.71
2023-01-31T11:38:51.363Z,0.58
2023-01-31T11:39:56.473Z,0.64
2023-01-31T11:40:53.026Z,0.29
2023-01-31T11:41:49.668Z,0.99
2023-01-31T11:43:00.817Z,0.81
2023-01-31T11:44:12.303Z,0.86
2023-01-31T11:45:30.801Z,0.89
2023-01-31T11:46:27.472Z,0.98
2023-01-31T11:47:42.409Z,0.86
2023-01-31T11:48:42.280Z,0.66
2023-01-31T11:49:42.774Z,0.60
2023-01-31T11:50:43.197Z,0.57
2023-01-31T11:51:40.858Z,0.61
2023-01-31T11:52:37.465Z,0.80
2023-01-31T11:53:43.184Z,0.97
2023-01-31T11:54:46.600Z,0.99
2023-01-31T11:55:44.759Z,1.18
2023-01-31T11:56:41.804Z,0.69
2023-01-31T11:57:40.510Z,0.89
2023-01-31T11:58:40.710Z,0.65
2023-01-31T11:59:37.799Z,0.91
2023-01-31T12:00:34.575Z,1.01
2023-01-31T12:01:32.651Z,1.16
2023-01-31T12:02:41.668Z,1.44
2023-01-31T12:03:48.670Z,1.58
2023-01-31T12:04:52.553Z,1.12
2023-01-31T12:06:01.626Z,0.75
2023-01-31T12:07:22.367Z,0.51
2023-01-31T12:08:44.319Z,0.61
2023-01-31T12:09:44.148Z,0.98
2023-01-31T12:10:45.979Z,0.93
2023-01-31T12:11:52.328Z,0.93
2023-01-31T12:12:52.142Z,1.07
2023-01-31T12:13:54.105Z,0.90
2023-01-31T12:14:51.152Z,0.71
2023-01-31T12:15:58.963Z,0.72
2023-01-31T12:16:56.792Z,0.95
2023-01-31T12:17:54.305Z,0.89
2023-01-31T12:19:02.939Z,0.74
2023-01-31T12:19:59.541Z,0.66
2023-01-31T12:21:03.948Z,0.74
2023-01-31T12:22:13.947Z,0.92
2023-01-31T12:23:16.597Z,0.94
2023-01-31T12:24:44.065Z,1.07
2023-01-31T12:25:53.167Z,0.63
2023-01-31T12:26:56.938Z,1.22
2023-01-31T12:28:22.027Z,1.06
2023-01-31T12:29:49.681Z,1.13
2023-01-31T12:31:02.929Z,0.92
2023-01-31T12:32:02.659Z,0.94
2023-01-31T12:33:16.461Z,0.78
2023-01-31T12:34:59.540Z,1.11
2023-01-31T12:36:09.904Z,0.93
2023-01-31T12:37:12.323Z,0.77
2023-01-31T12:38:16.696Z,0.99
2023-01-31T12:39:22.458Z,0.92
2023-01-31T12:40:31.238Z,0.60
2023-01-31T12:41:30.582Z,0.69
2023-01-31T12:42:32.986Z,0.53
2023-01-31T12:43:29.555Z,0.63
2023-01-31T12:45:02.746Z,0.84
2023-01-31T12:46:15.079Z,0.71
2023-01-31T12:47:45.507Z,0.89
2023-01-31T12:48:50.047Z,0.56
2023-01-31T12:50:05.194Z,0.72
2023-01-31T12:51:37.770Z,0.47
2023-01-31T12:53:04.710Z,0.58
2023-01-31T12:54:43.120Z,0.90
2023-01-31T12:55:39.842Z,1.00
2023-01-31T12:56:52.076Z,0.84
2023-01-31T12:58:13.180Z,0.79
2023-01-31T12:59:24.946Z,0.79
2023-01-31T13:00:24.244Z,0.67
2023-01-31T13:02:08.093Z,0.84
2023-01-31T13:03:16.988Z,1.08
2023-01-31T13:04:52.393Z,0.72
2023-01-31T13:06:07.235Z,0.58
2023-01-31T13:07:10.589Z,1.07
2023-01-31T13:08:29.019Z,0.69
2023-01-31T13:09:33.039Z,0.99
2023-01-31T13:10:33.607Z,1.08
2023-01-31T13:11:45.483Z,0.61
2023-01-31T13:12:42.807Z,0.61
2023-01-31T13:13:49.221Z,0.44
2023-01-31T13:14:52.323Z,0.70
2023-01-31T13:15:58.650Z,0.61
2023-01-31T13:17:02.540Z,0.87
2023-01-31T13:18:05.712Z,0.78
2023-01-31T13:19:05.315Z,1.34
2023-01-31T13:20:20.399Z,1.31
2023-01-31T13:21:22.854Z,0.98
2023-01-31T13:22:40.751Z,1.20
2023-01-31T13:23:45.247Z,0.93
2023-01-31T13:24:45.021Z,0.63